Time;durP1;ratioP1;P1;durP2;ratioP2;P2;SDS_P1;SDS_P2;PMS_P1;PMS_P2;Temp;Humidity;BMP_temperature;BMP_pressure;BME280_temperature;BME280_humidity;BME280_pressure;Samples;Min_cycle;Max_cycle;Signal;HPM_P1;HPM_P2
2021/03/13 00:00:22;;;;;;;;;;;205.70;2252.80;;;;;;5077408;28;20023;-83
2021/03/13 00:02:49;;;;;;;40.00;23.50;;;205.60;2252.80;;;;;;5094508;28;19931;-85
2021/03/13 00:05:44;;;;;;;40.75;24.15;;;205.50;2252.80;;;;;;5094613;28;20016;-85
2021/03/13 00:08:11;;;;;;;40.00;24.55;;;205.40;2252.80;;;;;;5076696;28;20072;-85
2021/03/13 00:10:40;;;;;;;39.10;24.92;;;205.60;2252.80;;;;;;5076981;28;20020;-84
2021/03/13 00:13:07;;;;;;;43.10;25.27;;;205.70;2252.80;;;;;;5076414;28;20028;-84
2021/03/13 00:15:37;;;;;;;38.03;25.55;;;205.60;2252.80;;;;;;5076468;28;20028;-85
2021/03/13 00:18:04;;;;;;;39.13;24.60;;;230.40;2252.80;;;;;;5083849;28;20034;-85
2021/03/13 00:20:31;;;;;;;39.25;24.38;;;230.40;2252.80;;;;;;5115163;28;20020;-84
2021/03/13 00:22:58;;;;;;;43.78;25.65;;;230.40;2252.80;;;;;;5075634;28;20069;-86
2021/03/13 00:25:25;;;;;;;43.03;24.80;;;230.40;2252.80;;;;;;5072826;28;20032;-86
2021/03/13 00:27:52;;;;;;;39.08;23.65;;;230.50;2252.80;;;;;;5079148;28;20471;-86
2021/03/13 00:30:33;;;;;;;40.45;24.40;;;230.60;2252.80;;;;;;5077230;28;20034;-87
2021/03/13 00:33:09;;;;;;;40.85;23.73;;;230.60;2252.80;;;;;;5095145;28;20462;-87
2021/03/13 00:35:35;;;;;;;37.65;22.80;;;230.70;2252.80;;;;;;5077374;28;20032;-86
2021/03/13 00:38:01;;;;;;;;;;;230.60;2252.80;;;;;;5095283;28;20146;-86
2021/03/13 00:40:29;;;;;;;35.03;22.13;;;230.60;2252.80;;;;;;5076734;28;19957;-86
2021/03/13 00:42:57;;;;;;;40.05;23.92;;;230.60;2252.80;;;;;;5094792;28;20047;-86
2021/03/13 00:45:25;;;;;;;34.80;22.00;;;230.60;2252.80;;;;;;5077005;28;20024;-86
2021/03/13 00:47:51;;;;;;;38.40;24.55;;;230.60;2252.80;;;;;;5077613;28;20039;-86
2021/03/13 00:50:19;;;;;;;;;;;230.60;2252.80;;;;;;5095519;28;20024;-85
2021/03/13 00:52:45;;;;;;;38.63;22.10;;;230.60;2252.80;;;;;;5077064;28;19923;-86
2021/03/13 00:55:11;;;;;;;;;;;230.60;2252.80;;;;;;5077702;28;20498;-84
2021/03/13 00:57:38;;;;;;;34.43;21.20;;;230.50;2252.80;;;;;;5077499;28;19904;-86
2021/03/13 01:00:09;;;;;;;38.25;22.65;;;230.60;2252.80;;;;;;5094550;28;20253;-86
2021/03/13 01:02:35;;;;;;;38.00;23.77;;;230.70;2252.80;;;;;;5076616;28;20047;-86
2021/03/13 01:05:02;;;;;;;39.17;23.77;;;205.00;2252.80;;;;;;5076907;28;20122;-87
2021/03/13 01:07:27;;;;;;;35.25;22.88;;;230.80;2252.80;;;;;;5076298;28;20048;-87
2021/03/13 01:09:53;;;;;;;;;;;230.80;2252.80;;;;;;5078622;28;20519;-86
2021/03/13 01:12:22;;;;;;;32.20;21.63;;;230.70;2252.80;;;;;;5075202;28;19998;-86
2021/03/13 01:14:48;;;;;;;33.95;23.75;;;230.60;2252.80;;;;;;5092225;28;20113;-86
2021/03/13 01:17:13;;;;;;;;;;;230.50;2252.80;;;;;;5072875;28;20458;-86
2021/03/13 01:19:39;;;;;;;38.45;23.25;;;230.40;2252.80;;;;;;5069685;28;20435;-86
2021/03/13 01:22:05;;;;;;;;;;;230.40;2252.80;;;;;;5075054;28;20028;-86
2021/03/13 01:24:31;;;;;;;31.33;20.00;;;230.60;2252.80;;;;;;5074569;28;19994;-86
2021/03/13 01:26:56;;;;;;;;;;;230.60;2252.80;;;;;;5073976;28;20132;-86
2021/03/13 01:29:22;;;;;;;35.20;22.88;;;230.70;2252.80;;;;;;5068129;28;20474;-86
2021/03/13 01:31:47;;;;;;;;;;;230.70;2252.80;;;;;;5067159;28;20111;-86
2021/03/13 01:34:13;;;;;;;34.72;22.05;;;230.80;2252.80;;;;;;5075060;28;19943;-87
2021/03/13 01:36:42;;;;;;;;;;;230.70;2252.80;;;;;;5063868;28;20021;-87
2021/03/13 01:39:09;;;;;;;40.80;23.73;;;230.80;2252.80;;;;;;5073295;28;20338;-86
2021/03/13 01:41:35;;;;;;;42.03;26.10;;;230.70;2252.80;;;;;;5074069;28;20448;-87
2021/03/13 01:44:00;;;;;;;;;;;230.70;2252.80;;;;;;5074551;28;20116;-86
2021/03/13 01:46:26;;;;;;;43.15;26.98;;;230.80;2252.80;;;;;;5074808;28;19905;-87
2021/03/13 01:48:52;;;;;;;;;;;230.80;2252.80;;;;;;5082747;28;20043;-86
2021/03/13 01:51:20;;;;;;;39.28;24.70;;;231.00;2252.80;;;;;;5075284;28;20419;-86
2021/03/13 01:53:47;;;;;;;47.90;29.92;;;230.80;2252.80;;;;;;5066486;28;20132;-86
2021/03/13 01:56:14;;;;;;;48.08;28.77;;;230.60;2252.80;;;;;;5062585;28;20422;-86
2021/03/13 01:58:41;;;;;;;44.53;28.70;;;230.60;2252.80;;;;;;5093840;28;20032;-84
2021/03/13 02:01:07;;;;;;;43.63;28.67;;;230.50;2252.80;;;;;;5077129;28;20035;-85
2021/03/13 02:03:34;;;;;;;51.25;31.10;;;230.40;2252.80;;;;;;5076463;28;20047;-85
2021/03/13 02:06:00;;;;;;;45.72;29.38;;;230.50;2252.80;;;;;;5075489;28;20119;-85
2021/03/13 02:08:35;;;;;;;;;;;230.60;2252.80;;;;;;5076066;28;20109;-85
2021/03/13 02:11:19;;;;;;;43.53;26.83;;;230.50;2252.80;;;;;;5075766;28;19904;-86
2021/03/13 02:13:53;;;;;;;48.47;28.20;;;230.50;2252.80;;;;;;5075923;28;20025;-85
2021/03/13 02:16:32;;;;;;;38.40;26.88;;;230.60;2252.80;;;;;;5075707;28;20020;-85
2021/03/13 02:19:36;;;;;;;41.70;28.35;;;230.80;2252.80;;;;;;5075964;28;20043;-86
2021/03/13 02:22:07;;;;;;;41.30;26.70;;;230.80;2252.80;;;;;;5075668;28;20032;-84
2021/03/13 02:24:57;;;;;;;36.80;26.88;;;230.80;2252.80;;;;;;5075561;28;20123;-84
2021/03/13 02:27:42;;;;;;;35.05;23.27;;;230.80;2252.80;;;;;;5071168;28;20032;-83
2021/03/13 02:30:17;;;;;;;36.72;23.83;;;230.70;2252.80;;;;;;5075463;28;20030;-84
2021/03/13 02:33:10;;;;;;;28.00;19.75;;;230.70;2252.80;;;;;;5075520;28;20028;-84
2021/03/13 02:35:39;;;;;;;24.08;17.00;;;230.70;2252.80;;;;;;5070958;28;20047;-84
2021/03/13 02:38:14;;;;;;;24.20;16.90;;;230.60;2252.80;;;;;;5075383;28;20020;-84
2021/03/13 02:40:43;;;;;;;21.27;15.55;;;230.60;2252.80;;;;;;5075390;28;20101;-84
2021/03/13 02:43:11;;;;;;;25.25;17.35;;;230.50;2252.80;;;;;;5075520;28;20421;-83
2021/03/13 02:45:47;;;;;;;23.90;16.52;;;230.50;2252.80;;;;;;5093045;28;20035;-84
2021/03/13 02:48:17;;;;;;;24.10;16.95;;;230.60;2252.80;;;;;;5076130;28;20040;-84
2021/03/13 02:50:43;;;;;;;21.73;15.00;;;230.50;2252.80;;;;;;5079098;28;20436;-85
2021/03/13 02:53:10;;;;;;;16.45;13.10;;;230.50;2252.80;;;;;;5078451;28;20138;-84
2021/03/13 02:55:36;;;;;;;18.83;13.40;;;230.50;2252.80;;;;;;5079005;28;20024;-85
2021/03/13 02:58:04;;;;;;;19.83;13.48;;;230.80;2252.80;;;;;;5078685;28;20360;-85
2021/03/13 03:00:38;;;;;;;17.17;11.90;;;230.40;2252.80;;;;;;5078564;28;20040;-83
2021/03/13 03:03:06;;;;;;;13.57;9.43;;;230.40;2252.80;;;;;;5079052;28;20082;-84
2021/03/13 03:05:33;;;;;;;14.40;9.65;;;230.40;2252.80;;;;;;5078437;28;20082;-84
2021/03/13 03:08:05;;;;;;;13.90;10.20;;;230.40;2252.80;;;;;;5078543;28;20024;-85
2021/03/13 03:10:38;;;;;;;13.43;9.15;;;230.40;2252.80;;;;;;5078439;28;20077;-83
2021/03/13 03:13:07;;;;;;;13.27;8.93;;;230.50;2252.80;;;;;;5096443;28;20101;-83
2021/03/13 03:15:34;;;;;;;17.92;9.10;;;230.40;2252.80;;;;;;5078223;28;20027;-83
2021/03/13 03:18:09;;;;;;;12.25;8.43;;;230.60;2252.80;;;;;;5078210;28;20042;-83
2021/03/13 03:20:37;;;;;;;11.73;8.13;;;230.60;2252.80;;;;;;5078117;28;20103;-83
2021/03/13 03:23:05;;;;;;;12.25;8.18;;;230.60;2252.80;;;;;;5078232;28;20036;-83
2021/03/13 03:25:31;;;;;;;10.48;7.38;;;230.50;2252.80;;;;;;5078475;28;20024;-83
2021/03/13 03:27:56;;;;;;;;;;;230.60;2252.80;;;;;;5078634;28;20031;-84
2021/03/13 03:30:22;;;;;;;12.30;7.88;;;230.60;2252.80;;;;;;5077847;28;20041;-83
2021/03/13 03:32:49;;;;;;;10.55;7.65;;;230.60;2252.80;;;;;;5096048;28;20060;-83
2021/03/13 03:35:16;;;;;;;10.50;7.28;;;230.50;2252.80;;;;;;5078214;28;20046;-84
2021/03/13 03:37:44;;;;;;;14.68;8.80;;;230.50;2252.80;;;;;;5096081;28;20024;-83
2021/03/13 03:40:12;;;;;;;12.68;7.57;;;230.50;2252.80;;;;;;5078136;28;20495;-83
2021/03/13 03:42:42;;;;;;;13.18;7.93;;;230.50;2252.80;;;;;;5077960;28;20040;-84
2021/03/13 03:45:09;;;;;;;12.13;8.05;;;230.60;2252.80;;;;;;5077876;28;20032;-83
2021/03/13 03:47:36;;;;;;;12.10;8.07;;;230.60;2252.80;;;;;;5077892;28;20024;-82
2021/03/13 03:50:05;;;;;;;11.43;7.45;;;230.50;2252.80;;;;;;5077878;28;20043;-84
2021/03/13 03:52:32;;;;;;;13.75;8.15;;;230.40;2252.80;;;;;;5076986;28;20055;-83
2021/03/13 03:54:59;;;;;;;12.85;7.68;;;230.50;2252.80;;;;;;5077878;28;20028;-84
2021/03/13 03:57:26;;;;;;;12.73;8.15;;;230.50;2252.80;;;;;;5077574;28;20127;-83
2021/03/13 03:59:52;;;;;;;14.38;9.23;;;230.50;2252.80;;;;;;5077310;28;20030;-83
2021/03/13 04:02:21;;;;;;;12.23;8.40;;;230.50;2252.80;;;;;;5077388;28;20035;-83
2021/03/13 04:04:49;;;;;;;12.35;7.75;;;230.50;2252.80;;;;;;5077519;28;20024;-83
2021/03/13 04:07:16;;;;;;;13.75;9.02;;;230.60;2252.80;;;;;;5078034;28;20031;-83
2021/03/13 04:09:44;;;;;;;13.60;8.93;;;230.60;2252.80;;;;;;5077682;28;20054;-83
2021/03/13 04:12:12;;;;;;;11.68;7.60;;;230.60;2252.80;;;;;;5077288;28;20028;-85
2021/03/13 04:14:39;;;;;;;11.07;7.60;;;230.50;2252.80;;;;;;5077666;28;20580;-84
2021/03/13 04:17:05;;;;;;;13.95;8.43;;;230.60;2252.80;;;;;;5077579;28;20048;-85
2021/03/13 04:19:33;;;;;;;14.73;8.80;;;230.50;2252.80;;;;;;5077186;28;20494;-84
2021/03/13 04:21:59;;;;;;;13.75;8.10;;;230.60;2252.80;;;;;;5077269;28;20097;-84
2021/03/13 04:24:26;;;;;;;12.20;8.68;;;230.60;2252.80;;;;;;5076684;28;20039;-84
2021/03/13 04:26:53;;;;;;;18.33;8.60;;;230.60;2252.80;;;;;;5095211;28;20495;-84
2021/03/13 04:29:19;;;;;;;12.73;8.40;;;230.60;2252.80;;;;;;5076875;28;20046;-83
2021/03/13 04:31:47;;;;;;;13.43;7.55;;;230.60;2252.80;;;;;;5076972;28;20035;-83
2021/03/13 04:34:15;;;;;;;13.40;8.10;;;230.60;2252.80;;;;;;5095129;28;20028;-84
2021/03/13 04:36:42;;;;;;;16.77;8.20;;;230.60;2252.80;;;;;;5077068;28;20069;-84
2021/03/13 04:39:08;;;;;;;13.93;8.13;;;230.60;2252.80;;;;;;5093293;28;20087;-84
2021/03/13 04:41:35;;;;;;;12.00;7.47;;;230.70;2252.80;;;;;;5076677;28;20069;-85
2021/03/13 04:44:02;;;;;;;12.23;7.95;;;230.60;2252.80;;;;;;5076562;28;20116;-83
2021/03/13 04:46:32;;;;;;;11.25;7.60;;;230.60;2252.80;;;;;;5076120;28;20101;-86
2021/03/13 04:48:58;;;;;;;13.50;7.35;;;230.60;2252.80;;;;;;5094360;28;20112;-83
2021/03/13 04:51:23;;;;;;;12.27;7.50;;;230.60;2252.80;;;;;;5076655;28;20078;-84
2021/03/13 04:53:49;;;;;;;;;;;230.60;2252.80;;;;;;5076970;28;20040;-83
2021/03/13 04:56:15;;;;;;;11.02;7.25;;;230.50;2252.80;;;;;;5093156;28;20002;-83
2021/03/13 04:58:40;;;;;;;;;;;230.50;2252.80;;;;;;5094404;28;20063;-83
2021/03/13 05:01:06;;;;;;;14.20;7.22;;;230.40;2252.80;;;;;;5094027;28;19999;-83
2021/03/13 05:03:32;;;;;;;;;;;230.50;2252.80;;;;;;5093591;28;20490;-83
2021/03/13 05:05:58;;;;;;;11.43;7.70;;;230.40;2252.80;;;;;;5076679;28;19908;-84
2021/03/13 05:08:23;;;;;;;;;;;205.70;2252.80;;;;;;5076499;28;20059;-82
2021/03/13 05:10:49;;;;;;;12.98;7.32;;;230.40;2252.80;;;;;;5075837;28;20019;-83
2021/03/13 05:13:14;;;;;;;;;;;230.40;2252.80;;;;;;5093495;28;20020;-82
2021/03/13 05:15:40;;;;;;;21.02;10.45;;;230.40;2252.80;;;;;;5076288;28;19904;-83
2021/03/13 05:18:06;;;;;;;;;;;230.40;2252.80;;;;;;5076860;28;20020;-83
2021/03/13 05:20:31;;;;;;;24.50;12.07;;;230.50;2252.80;;;;;;5075953;28;19904;-84
2021/03/13 05:22:58;;;;;;;;;;;230.50;2252.80;;;;;;5094419;28;20075;-84
2021/03/13 05:25:24;;;;;;;14.17;7.80;;;230.50;2252.80;;;;;;5076358;28;19953;-83
2021/03/13 05:27:49;;;;;;;;;;;230.50;2252.80;;;;;;5075925;28;20036;-83
2021/03/13 05:30:16;;;;;;;12.77;8.38;;;230.60;2252.80;;;;;;5075634;28;19919;-83
2021/03/13 05:32:41;;;;;;;16.15;9.25;;;230.60;2252.80;;;;;;5076333;28;20062;-83
2021/03/13 05:35:08;;;;;;;;;;;230.60;2252.80;;;;;;5076382;28;20478;-82
2021/03/13 05:37:35;;;;;;;16.52;9.88;;;230.60;2252.80;;;;;;5076292;28;19904;-83
2021/03/13 05:40:01;;;;;;;16.73;9.68;;;230.60;2252.80;;;;;;5076417;28;20024;-83
2021/03/13 05:42:27;;;;;;;;;;;230.60;2252.80;;;;;;5076514;28;20122;-86
2021/03/13 05:44:54;;;;;;;24.55;12.65;;;230.60;2252.80;;;;;;5076103;28;19908;-90
2021/03/13 05:47:21;;;;;;;20.92;9.73;;;230.60;2252.80;;;;;;5075848;28;20525;-83
2021/03/13 05:50:11;;;;;;;15.85;9.48;;;230.60;2252.80;;;;;;5076081;28;20020;-89
2021/03/13 05:52:39;;;;;;;13.77;8.70;;;230.60;2252.80;;;;;;5071150;28;20090;-82
2021/03/13 05:55:07;;;;;;;14.35;8.05;;;230.60;2252.80;;;;;;5093721;28;20024;-87
2021/03/13 05:57:33;;;;;;;12.30;7.38;;;230.60;2252.80;;;;;;5074844;28;20085;-83
2021/03/13 06:00:00;;;;;;;14.23;7.50;;;230.60;2252.80;;;;;;5075863;28;20024;-82
2021/03/13 06:02:26;;;;;;;12.23;8.00;;;230.50;2252.80;;;;;;5075008;28;20488;-84
2021/03/13 06:04:52;;;;;;;;;;;230.60;2252.80;;;;;;5075995;28;20035;-85
2021/03/13 06:07:25;;;;;;;14.32;9.73;;;230.70;2252.80;;;;;;5075725;28;19907;-82
2021/03/13 06:09:56;;;;;;;13.35;8.48;;;230.60;2252.80;;;;;;5075668;28;20096;-85
2021/03/13 06:12:23;;;;;;;13.07;8.98;;;230.60;2252.80;;;;;;5075509;28;20032;-83
2021/03/13 06:14:50;;;;;;;13.40;8.98;;;230.60;2252.80;;;;;;5075523;28;20028;-82
2021/03/13 06:17:16;;;;;;;53.30;33.85;;;230.60;2252.80;;;;;;5093446;28;20032;-82
2021/03/13 06:19:49;;;;;;;26.55;18.30;;;230.70;2252.80;;;;;;5075780;28;20073;-81
2021/03/13 06:22:35;;;;;;;27.23;16.92;;;230.60;2252.80;;;;;;5076936;28;20107;-82
2021/03/13 06:25:19;;;;;;;18.15;12.18;;;230.60;2252.80;;;;;;5079389;28;20559;-86
2021/03/13 06:28:03;;;;;;;13.98;9.82;;;230.70;2252.80;;;;;;5079558;28;20165;-85
2021/03/13 06:30:48;;;;;;;13.20;9.45;;;230.70;2252.80;;;;;;5079405;28;20016;-85
2021/03/13 06:33:26;;;;;;;14.18;10.15;;;230.70;2252.80;;;;;;5079093;28;20036;-83
2021/03/13 06:35:58;;;;;;;13.48;8.05;;;230.80;2252.80;;;;;;5097319;28;20047;-82
2021/03/13 06:38:26;;;;;;;13.50;9.07;;;230.80;2252.80;;;;;;5079489;28;20429;-85
2021/03/13 06:40:53;;;;;;;14.50;9.32;;;230.90;2252.80;;;;;;5079125;28;20123;-84
2021/03/13 06:43:25;;;;;;;14.85;8.85;;;231.00;2252.80;;;;;;5078770;28;20115;-83
2021/03/13 06:45:55;;;;;;;15.45;9.20;;;231.10;2252.80;;;;;;5079200;28;20115;-82
2021/03/13 06:48:39;;;;;;;12.90;8.40;;;231.20;2252.80;;;;;;5079474;28;20077;-86
2021/03/13 06:51:26;;;;;;;11.70;7.85;;;231.30;2252.80;;;;;;5079464;28;20361;-87
2021/03/13 06:54:02;;;;;;;;;;;231.30;2252.80;;;;;;5097522;28;20137;-76
2021/03/13 06:56:30;;;;;;;12.63;6.10;;;231.30;2252.80;;;;;;5079150;28;19911;-87
2021/03/13 06:58:56;;;;;;;9.63;6.57;;;256.00;2252.80;;;;;;5079099;28;20061;-86
2021/03/13 07:01:29;;;;;;;;;;;256.20;2227.20;;;;;;5079193;28;20028;-87
2021/03/13 07:03:57;;;;;;;12.85;7.07;;;256.10;2201.60;;;;;;5079026;28;19942;-86
2021/03/13 07:06:23;;;;;;;7.85;5.35;;;256.20;2201.60;;;;;;5078649;28;20024;-83
2021/03/13 07:08:51;;;;;;;10.98;7.05;;;256.20;2227.20;;;;;;5077949;28;20025;-85
2021/03/13 07:11:22;;;;;;;9.68;5.85;;;256.30;2201.60;;;;;;5077204;28;20120;-81
2021/03/13 07:13:54;;;;;;;11.20;7.85;;;256.40;2176.00;;;;;;5077966;28;20020;-81
2021/03/13 07:16:22;;;;;;;8.20;6.32;;;256.20;2252.80;;;;;;5078281;28;20058;-80
2021/03/13 07:18:49;;;;;;;8.93;6.22;;;256.50;2201.60;;;;;;5077434;28;20054;-88
2021/03/13 07:21:16;;;;;;;10.02;6.78;;;256.50;2201.60;;;;;;5077099;28;20031;-83
2021/03/13 07:23:43;;;;;;;11.10;6.82;;;256.50;2176.00;;;;;;5076327;28;20028;-83
2021/03/13 07:26:16;;;;;;;11.13;6.40;;;256.70;2124.80;;;;;;5077753;28;20016;-85
2021/03/13 07:28:44;;;;;;;10.45;7.00;;;256.90;2124.80;;;;;;5074665;28;20024;-89
2021/03/13 07:31:11;;;;;;;12.32;7.25;;;256.80;2099.20;;;;;;5092464;28;20026;-85
2021/03/13 07:33:40;;;;;;;10.93;6.70;;;256.80;2048.00;;;;;;5076384;28;20111;-85
2021/03/13 07:36:13;;;;;;;9.65;5.57;;;281.60;2124.80;;;;;;5094797;28;20036;-85
2021/03/13 07:38:41;;;;;;;8.55;6.10;;;281.60;2099.20;;;;;;5075535;28;20016;-85
2021/03/13 07:41:10;;;;;;;8.48;5.78;;;256.90;2099.20;;;;;;5095587;28;20134;-86
2021/03/13 07:43:38;;;;;;;12.32;6.45;;;256.80;2124.80;;;;;;5072833;28;20112;-88
2021/03/13 07:46:08;;;;;;;11.20;6.70;;;281.60;2124.80;;;;;;5077472;28;20463;-87
2021/03/13 07:48:36;;;;;;;9.23;6.20;;;281.70;2124.80;;;;;;5071998;28;20047;-79
2021/03/13 07:51:03;;;;;;;9.13;6.45;;;281.80;2124.80;;;;;;5077915;28;20077;-86
2021/03/13 07:53:33;;;;;;;9.48;6.75;;;281.80;2099.20;;;;;;5076951;28;20064;-86
2021/03/13 07:56:00;;;;;;;9.25;5.75;;;281.80;2099.20;;;;;;5077585;28;20016;-83
2021/03/13 07:58:26;;;;;;;11.65;7.68;;;281.90;2124.80;;;;;;5076677;28;20024;-84
2021/03/13 08:00:53;;;;;;;17.02;11.20;;;282.00;2150.40;;;;;;5076705;28;20032;-83
2021/03/13 08:03:35;;;;;;;14.68;10.70;;;281.90;2150.40;;;;;;5077133;28;20086;-86
2021/03/13 08:06:02;;;;;;;14.23;9.10;;;281.90;2124.80;;;;;;5074889;28;20028;-84
2021/03/13 08:08:41;;;;;;;13.05;8.13;;;281.90;2099.20;;;;;;5077425;28;20120;-88
2021/03/13 08:11:18;;;;;;;18.42;12.18;;;281.80;2124.80;;;;;;5077379;28;20016;-84
2021/03/13 08:13:48;;;;;;;12.77;8.80;;;281.70;2176.00;;;;;;5074406;28;20513;-82
2021/03/13 08:16:19;;;;;;;12.93;9.02;;;281.70;2124.80;;;;;;5077360;28;20024;-85
2021/03/13 08:18:45;;;;;;;22.92;15.18;;;281.60;2176.00;;;;;;5077477;28;20020;-86
2021/03/13 08:21:20;;;;;;;14.13;9.20;;;281.60;2227.20;;;;;;5077315;28;20459;-85
2021/03/13 08:23:52;;;;;;;16.05;11.63;;;281.60;2176.00;;;;;;5073433;28;20036;-84
2021/03/13 08:26:22;;;;;;;14.95;8.93;;;256.90;2150.40;;;;;;5057021;28;20017;-87
2021/03/13 08:28:48;;;;;;;14.65;8.40;;;256.80;2150.40;;;;;;5075649;28;20028;-86
2021/03/13 08:31:23;;;;;;;15.93;11.13;;;281.60;2176.00;;;;;;5076733;28;20093;-90
2021/03/13 08:33:50;;;;;;;11.18;8.05;;;281.60;2176.00;;;;;;5077275;28;20059;-85
2021/03/13 08:36:20;;;;;;;11.10;7.25;;;281.60;2150.40;;;;;;5073773;28;20123;-87
2021/03/13 08:38:55;;;;;;;12.50;7.60;;;281.60;2099.20;;;;;;5076647;28;20024;-87
2021/03/13 08:41:40;;;;;;;13.52;9.10;;;281.70;2124.80;;;;;;5077077;28;20028;-86
2021/03/13 08:44:06;;;;;;;13.13;9.00;;;281.70;2099.20;;;;;;5076879;28;20033;-84
2021/03/13 08:46:53;;;;;;;14.75;9.25;;;281.70;2150.40;;;;;;5075947;28;20356;-81
2021/03/13 08:49:25;;;;;;;14.68;8.98;;;281.80;2150.40;;;;;;5077179;28;20111;-85
2021/03/13 08:52:16;;;;;;;18.80;11.02;;;281.60;2150.40;;;;;;5076657;28;20039;-83
2021/03/13 08:54:50;;;;;;;16.05;11.63;;;281.60;2150.40;;;;;;5086635;28;20047;-81
2021/03/13 08:57:40;;;;;;;14.52;9.95;;;281.70;2099.20;;;;;;5074959;28;20043;-85
2021/03/13 09:00:07;;;;;;;17.00;10.73;;;281.90;2124.80;;;;;;5074819;28;20027;-86
2021/03/13 09:02:39;;;;;;;16.65;12.02;;;281.90;2124.80;;;;;;5093948;28;20032;-84
2021/03/13 09:05:14;;;;;;;16.35;12.77;;;281.80;2124.80;;;;;;5094639;28;20024;-83
2021/03/13 09:07:44;;;;;;;16.55;11.77;;;282.00;2124.80;;;;;;5075265;28;20024;-83
2021/03/13 09:10:10;;;;;;;22.05;14.30;;;282.10;2124.80;;;;;;5073097;28;20020;-82
2021/03/13 09:12:40;;;;;;;18.88;13.70;;;282.20;2099.20;;;;;;5075355;28;20027;-89
2021/03/13 09:15:07;;;;;;;18.90;12.68;;;282.30;2048.00;;;;;;5076421;28;20119;-86
2021/03/13 09:17:34;;;;;;;13.70;9.82;;;282.40;2073.60;;;;;;5076119;28;20035;-84
2021/03/13 09:20:15;;;;;;;13.75;10.00;;;282.40;2022.40;;;;;;5076231;28;20115;-85
2021/03/13 09:22:44;;;;;;;14.98;10.80;;;307.20;2022.40;;;;;;5055723;28;20089;-82
2021/03/13 09:25:15;;;;;;;14.65;9.07;;;307.20;2022.40;;;;;;5071193;28;20024;-77
2021/03/13 09:27:42;;;;;;;14.45;11.05;;;307.30;1971.20;;;;;;5073219;28;20463;-80
2021/03/13 09:30:11;;;;;;;14.82;10.35;;;307.40;1971.20;;;;;;5075393;28;20016;-82
2021/03/13 09:32:48;;;;;;;17.02;12.13;;;307.60;2022.40;;;;;;5075258;28;20023;-83
2021/03/13 09:35:17;;;;;;;14.50;9.52;;;307.70;2048.00;;;;;;5074486;28;20035;-79
2021/03/13 09:37:43;;;;;;;13.48;9.43;;;307.80;1945.60;;;;;;5094063;28;20065;-84
2021/03/13 09:40:13;;;;;;;16.73;10.40;;;307.80;1894.40;;;;;;5094174;28;20024;-83
2021/03/13 09:42:42;;;;;;;14.70;10.10;;;308.00;1945.60;;;;;;5077388;28;20031;-88
2021/03/13 09:45:11;;;;;;;14.60;10.05;;;332.80;1920.00;;;;;;5076689;28;20024;-86
2021/03/13 09:47:56;;;;;;;11.60;8.63;;;308.10;1868.80;;;;;;5093819;28;20617;-83
2021/03/13 09:50:35;;;;;;;15.68;11.10;;;333.00;1843.20;;;;;;5076408;28;20028;-81
2021/03/13 09:53:03;;;;;;;13.30;8.73;;;333.20;1894.40;;;;;;5075356;28;20058;-84
2021/03/13 09:55:30;;;;;;;8.48;6.00;;;333.40;1766.40;;;;;;5093801;28;20058;-82
2021/03/13 09:58:01;;;;;;;11.32;6.35;;;333.50;1689.60;;;;;;5078129;28;20040;-90
2021/03/13 10:00:38;;;;;;;10.48;7.05;;;333.70;1689.60;;;;;;5080519;28;20024;-91
2021/03/13 10:03:10;;;;;;;10.48;7.68;;;358.50;1715.20;;;;;;5077192;28;20365;-87
2021/03/13 10:05:36;;;;;;;9.88;6.72;;;358.80;1664.00;;;;;;5076243;28;20064;-89
2021/03/13 10:08:08;;;;;;;10.90;5.93;;;358.80;1664.00;;;;;;5081509;28;20060;-80
2021/03/13 10:10:35;;;;;;;9.52;5.72;;;359.00;1536.00;;;;;;5082721;28;20020;-90
2021/03/13 10:13:03;;;;;;;9.85;6.28;;;359.00;1561.60;;;;;;5081539;28;20046;-86
2021/03/13 10:15:30;;;;;;;9.15;5.80;;;359.30;1561.60;;;;;;5079904;28;20021;-77
2021/03/13 10:18:13;;;;;;;9.57;6.75;;;384.20;1510.40;;;;;;5078488;28;20035;-87
2021/03/13 10:20:58;;;;;;;12.50;6.90;;;384.40;1510.40;;;;;;5077061;28;20028;-90
2021/03/13 10:23:28;;;;;;;14.25;6.90;;;384.10;1536.00;;;;;;5089922;28;20024;-86
2021/03/13 10:26:11;;;;;;;9.30;6.43;;;384.00;1510.40;;;;;;5079630;28;20020;-86
2021/03/13 10:28:48;;;;;;;11.55;6.10;;;384.60;1484.80;;;;;;5075840;28;20024;-83
2021/03/13 10:31:19;;;;;;;8.52;6.22;;;409.60;1510.40;;;;;;5078426;28;20023;-85
2021/03/13 10:33:47;;;;;;;7.25;4.63;;;384.90;1408.00;;;;;;5096616;28;20031;-88
2021/03/13 10:36:14;;;;;;;7.32;4.75;;;409.70;1382.40;;;;;;5097165;28;20032;-86
2021/03/13 10:38:47;;;;;;;8.38;5.47;;;409.90;1356.80;;;;;;5096661;28;20016;-85
2021/03/13 10:41:20;;;;;;;9.48;5.28;;;410.10;1356.80;;;;;;5079345;28;20129;-88
2021/03/13 10:43:47;;;;;;;6.70;4.95;;;410.40;1331.20;;;;;;5093389;28;20028;-86
2021/03/13 10:46:20;;;;;;;6.80;4.50;;;410.30;1305.60;;;;;;5077310;28;20020;-86
2021/03/13 10:48:49;;;;;;;15.93;4.93;;;410.50;1254.40;;;;;;5073157;28;20480;-85
2021/03/13 10:51:29;;;;;;;6.82;4.68;;;410.50;1331.20;;;;;;5078106;28;20046;-92
2021/03/13 10:53:58;;;;;;;8.63;5.82;;;410.30;1356.80;;;;;;5078003;28;20059;-91
2021/03/13 10:56:36;;;;;;;8.43;5.63;;;435.40;1254.40;;;;;;5095803;28;20020;-86
2021/03/13 10:59:03;;;;;;;8.45;4.88;;;435.60;1228.80;;;;;;5095754;28;20028;-88
2021/03/13 11:01:29;;;;;;;13.35;5.95;;;435.80;1203.20;;;;;;5095835;28;20474;-87
2021/03/13 11:03:54;;;;;;;9.82;5.35;;;435.50;1305.60;;;;;;5077617;28;20040;-86
2021/03/13 11:06:35;;;;;;;8.82;5.18;;;435.30;1280.00;;;;;;5077659;28;20244;-83
2021/03/13 11:09:04;;;;;;;7.10;5.25;;;435.80;1203.20;;;;;;5074649;28;20024;-84
2021/03/13 11:11:29;;;;;;;8.35;5.10;;;436.00;1177.60;;;;;;5076628;28;20029;-87
2021/03/13 11:13:55;;;;;;;6.18;4.43;;;436.10;1228.80;;;;;;5078207;28;20550;-84
2021/03/13 11:16:22;;;;;;;8.45;5.45;;;435.60;1177.60;;;;;;5077682;28;20024;-84
2021/03/13 11:18:50;;;;;;;14.73;9.40;;;409.70;1356.80;;;;;;5078010;28;20028;-86
2021/03/13 11:21:16;;;;;;;9.20;5.93;;;384.90;1331.20;;;;;;5081344;28;20034;-85
2021/03/13 11:23:42;;;;;;;10.95;6.70;;;384.10;1382.40;;;;;;5077179;28;20039;-84
2021/03/13 11:26:09;;;;;;;8.02;4.97;;;359.30;1433.60;;;;;;5076635;28;20020;-94
2021/03/13 11:28:35;;;;;;;9.65;5.38;;;384.10;1382.40;;;;;;5083332;28;20509;-85
2021/03/13 11:31:01;;;;;;;12.18;7.25;;;384.30;1331.20;;;;;;5075227;28;20024;-85
2021/03/13 11:33:27;;;;;;;10.90;6.63;;;384.40;1382.40;;;;;;5075951;28;20042;-83
2021/03/13 11:35:52;;;;;;;11.82;6.93;;;384.30;1459.20;;;;;;5077395;28;20040;-83
2021/03/13 11:38:18;;;;;;;8.55;5.93;;;384.90;1459.20;;;;;;5076533;28;20484;-86
2021/03/13 11:40:44;;;;;;;9.73;6.10;;;410.20;1382.40;;;;;;5075848;28;20112;-80
2021/03/13 11:43:10;;;;;;;12.27;5.72;;;435.30;1254.40;;;;;;5074151;28;20028;-82
2021/03/13 11:45:36;;;;;;;6.28;4.60;;;410.20;1356.80;;;;;;5077007;28;20020;-87
2021/03/13 11:48:01;;;;;;;7.85;5.72;;;435.20;1305.60;;;;;;5076548;28;20024;-81
2021/03/13 11:50:29;;;;;;;8.30;4.90;;;435.30;1305.60;;;;;;5076083;28;20020;-84
2021/03/13 11:52:57;;;;;;;6.57;4.88;;;435.50;1280.00;;;;;;5075579;28;20133;-84
2021/03/13 11:55:24;;;;;;;10.02;6.30;;;410.50;1280.00;;;;;;5091798;28;20015;-83
2021/03/13 11:57:50;;;;;;;12.90;5.20;;;384.90;1356.80;;;;;;5065035;28;20060;-83
2021/03/13 12:00:17;;;;;;;10.88;4.97;;;384.60;1382.40;;;;;;5072187;28;20048;-83
2021/03/13 12:02:43;;;;;;;7.53;5.22;;;384.20;1433.60;;;;;;5070955;28;20498;-85
2021/03/13 12:05:09;;;;;;;8.98;4.88;;;384.20;1408.00;;;;;;5076223;28;20024;-83
2021/03/13 12:07:37;;;;;;;9.82;5.78;;;384.00;1459.20;;;;;;5071623;28;20017;-87
2021/03/13 12:10:05;;;;;;;10.82;7.28;;;359.10;1510.40;;;;;;5073252;28;20028;-85
2021/03/13 12:12:30;;;;;;;8.38;6.05;;;358.80;1484.80;;;;;;5073597;28;20051;-83
2021/03/13 12:14:56;;;;;;;13.00;6.45;;;358.70;1510.40;;;;;;5073820;28;20523;-82
2021/03/13 12:17:22;;;;;;;7.60;4.90;;;358.70;1536.00;;;;;;5076507;28;20483;-85
2021/03/13 12:19:48;;;;;;;7.25;5.13;;;358.60;1561.60;;;;;;5073131;28;20024;-85
2021/03/13 12:22:15;;;;;;;8.18;5.60;;;358.60;1561.60;;;;;;5075892;28;20387;-84
2021/03/13 12:24:41;;;;;;;7.28;4.97;;;358.60;1536.00;;;;;;5073729;28;20484;-84